Time,TemperatureF,DewpointF,PressureIn,WindDirection,WindDirectionDegrees,WindSpeedMPH,WindSpeedGustMPH,Humidity,HourlyPrecipIn,Conditions,Clouds,dailyrainin,SoftwareType,DateUTC
2014-12-18 00:01:00,32.4,32.1,29.58,WSW,247,0.0,-999.0,99,-99.99,,,0.00,Acu-Link.com,2014-12-18 05:01:00,
2014-12-18 00:16:00,32.4,32.1,29.58,SSW,202,0.0,-999.0,99,-99.99,,,0.00,Acu-Link.com,2014-12-18 05:16:00,
2014-12-18 00:32:00,32.4,32.1,29.58,SE,135,0.0,-999.0,99,-99.99,,,0.00,Acu-Link.com,2014-12-18 05:32:00,
2014-12-18 00:47:00,32.4,32.1,29.58,WNW,292,0.0,-999.0,99,-99.99,,,0.00,Acu-Link.com,2014-12-18 05:47:00,
2014-12-18 01:02:00,32.4,32.1,29.57,SSW,202,0.0,-999.0,99,-99.99,,,0.00,Acu-Link.com,2014-12-18 06:02:00,
2014-12-18 01:17:00,32.2,31.9,29.57,SW,225,0.0,-999.0,99,-99.99,,,0.00,Acu-Link.com,2014-12-18 06:17:00,
2014-12-18 01:32:00,32.4,32.1,29.57,South,180,2.7,-999.0,99,-99.99,,,0.00,Acu-Link.com,2014-12-18 06:32:00,
2014-12-18 01:48:00,32.4,32.1,29.57,ENE,67,0.0,-999.0,99,-99.99,,,0.00,Acu-Link.com,2014-12-18 06:48:00,
2014-12-18 02:03:00,32.4,32.1,29.58,South,180,0.0,-999.0,99,-99.99,,,0.00,Acu-Link.com,2014-12-18 07:03:00,
2014-12-18 02:18:00,32.4,32.1,29.58,South,180,0.0,-999.0,99,-99.99,,,0.00,Acu-Link.com,2014-12-18 07:18:00,
2014-12-18 02:33:00,32.4,32.1,29.58,SSW,202,2.2,-999.0,99,-99.99,,,0.00,Acu-Link.com,2014-12-18 07:33:00,
2014-12-18 02:48:00,32.4,32.1,29.58,SW,225,1.6,-999.0,99,-99.99,,,0.00,Acu-Link.com,2014-12-18 07:48:00,
2014-12-18 03:04:00,32.4,32.1,29.58,SSW,202,2.2,-999.0,99,-99.99,,,0.00,Acu-Link.com,2014-12-18 08:04:00,
2014-12-18 03:19:00,32.4,32.1,29.58,SSW,202,0.0,-999.0,99,-99.99,,,0.00,Acu-Link.com,2014-12-18 08:19:00,
2014-12-18 03:34:00,32.4,32.1,29.58,SSW,202,2.2,-999.0,99,-99.99,,,0.00,Acu-Link.com,2014-12-18 08:34:00,
2014-12-18 03:49:00,32.4,32.1,29.57,SSW,202,0.0,-999.0,99,-99.99,,,0.00,Acu-Link.com,2014-12-18 08:49:00,
2014-12-18 04:04:00,32.4,32.1,29.58,SW,225,0.0,-999.0,99,-99.99,,,0.00,Acu-Link.com,2014-12-18 09:04:00,
2014-12-18 04:20:00,32.4,32.1,29.58,West,270,0.0,-999.0,99,-99.99,,,0.00,Acu-Link.com,2014-12-18 09:20:00,
2014-12-18 04:35:00,32.2,31.9,29.58,SSW,202,0.0,-999.0,99,-99.99,,,0.00,Acu-Link.com,2014-12-18 09:35:00,
2014-12-18 04:50:00,32.2,31.9,29.57,South,180,0.0,-999.0,99,-99.99,,,0.00,Acu-Link.com,2014-12-18 09:50:00,
2014-12-18 05:05:00,32.2,31.9,29.57,SSW,202,0.0,-999.0,99,-99.99,,,0.00,Acu-Link.com,2014-12-18 10:05:00,
2014-12-18 05:21:00,32.2,31.9,29.58,ESE,112,0.0,-999.0,99,-99.99,,,0.00,Acu-Link.com,2014-12-18 10:21:00,
2014-12-18 05:36:00,32.2,31.9,29.58,South,180,0.0,-999.0,99,-99.99,,,0.00,Acu-Link.com,2014-12-18 10:36:00,
2014-12-18 05:51:00,32.2,31.9,29.58,SSW,202,0.0,-999.0,99,-99.99,,,0.00,Acu-Link.com,2014-12-18 10:51:00,
2014-12-18 06:06:00,32.5,32.3,29.59,WNW,292,2.7,-999.0,99,-99.99,,,0.00,Acu-Link.com,2014-12-18 11:06:00,
2014-12-18 06:21:00,32.9,32.7,29.59,NW,315,0.0,-999.0,99,-99.99,,,0.00,Acu-Link.com,2014-12-18 11:21:00,
2014-12-18 06:37:00,33.1,32.8,29.60,NNW,337,1.6,-999.0,99,-99.99,,,0.00,Acu-Link.com,2014-12-18 11:37:00,
2014-12-18 06:52:00,33.8,33.5,29.60,NNE,22,3.1,-999.0,99,-99.99,,,0.00,Acu-Link.com,2014-12-18 11:52:00,
2014-12-18 07:07:00,33.6,33.4,29.60,WNW,292,2.7,-999.0,99,-99.99,,,0.00,Acu-Link.com,2014-12-18 12:07:00,
2014-12-18 07:22:00,33.8,33.5,29.60,NW,315,1.6,-999.0,99,-99.99,,,0.00,Acu-Link.com,2014-12-18 12:22:00,
2014-12-18 07:37:00,34.3,34.1,29.61,NNW,337,5.8,-999.0,99,-99.99,,,0.00,Acu-Link.com,2014-12-18 12:37:00,
2014-12-18 07:53:00,35.2,35.0,29.62,NNE,22,3.8,-999.0,99,-99.99,,,0.01,Acu-Link.com,2014-12-18 12:53:00,
2014-12-18 08:08:00,35.4,35.2,29.63,North,0,7.8,-999.0,99,-99.99,,,0.01,Acu-Link.com,2014-12-18 13:08:00,
2014-12-18 08:23:00,36.0,35.7,29.63,North,0,4.7,-999.0,99,-99.99,,,0.01,Acu-Link.com,2014-12-18 13:23:00,
2014-12-18 08:38:00,36.1,35.9,29.64,West,270,4.7,-999.0,99,-99.99,,,0.01,Acu-Link.com,2014-12-18 13:38:00,
2014-12-18 08:53:00,36.5,36.2,29.64,NE,45,2.2,-999.0,99,-99.99,,,0.01,Acu-Link.com,2014-12-18 13:53:00,
2014-12-18 09:09:00,36.9,36.6,29.64,NNW,337,4.7,-999.0,99,-99.99,,,0.01,Acu-Link.com,2014-12-18 14:09:00,
2014-12-18 09:24:00,37.4,37.1,29.64,NNW,337,5.1,-999.0,99,-99.99,,,0.01,Acu-Link.com,2014-12-18 14:24:00,
2014-12-18 09:39:00,37.6,37.3,29.65,ENE,67,8.9,-999.0,99,-99.99,,,0.01,Acu-Link.com,2014-12-18 14:39:00,
2014-12-18 09:54:00,37.4,37.1,29.66,NW,315,5.8,-999.0,99,-99.99,,,0.01,Acu-Link.com,2014-12-18 14:54:00,
2014-12-18 10:10:00,37.4,37.1,29.66,NE,45,12.5,-999.0,99,-99.99,,,0.01,Acu-Link.com,2014-12-18 15:10:00,
2014-12-18 10:25:00,37.2,37.0,29.66,North,0,4.3,-999.0,99,-99.99,,,0.02,Acu-Link.com,2014-12-18 15:25:00,
2014-12-18 10:40:00,37.4,37.1,29.66,North,0,4.7,-999.0,99,-99.99,,,0.02,Acu-Link.com,2014-12-18 15:40:00,
2014-12-18 10:55:00,37.4,37.1,29.65,NNE,22,10.3,-999.0,99,-99.99,,,0.02,Acu-Link.com,2014-12-18 15:55:00,
2014-12-18 11:10:00,37.4,37.1,29.66,NE,45,5.8,-999.0,99,-99.99,,,0.02,Acu-Link.com,2014-12-18 16:10:00,
2014-12-18 11:26:00,37.4,37.1,29.66,NNW,337,2.7,-999.0,99,-99.99,,,0.02,Acu-Link.com,2014-12-18 16:26:00,
2014-12-18 11:41:00,37.8,37.5,29.65,NE,45,5.8,-999.0,99,-99.99,,,0.02,Acu-Link.com,2014-12-18 16:41:00,
2014-12-18 11:56:00,38.7,38.4,29.65,North,0,5.8,-999.0,99,-99.99,,,0.02,Acu-Link.com,2014-12-18 16:56:00,
2014-12-18 12:11:00,39.6,39.3,29.65,NW,315,6.7,-999.0,99,-99.99,,,0.02,Acu-Link.com,2014-12-18 17:11:00,
2014-12-18 12:26:00,39.7,39.5,29.64,North,0,8.3,-999.0,99,-99.99,,,0.02,Acu-Link.com,2014-12-18 17:26:00,
2014-12-18 12:42:00,38.1,37.9,29.64,NNW,337,11.0,-999.0,99,-99.99,,,0.02,Acu-Link.com,2014-12-18 17:42:00,
2014-12-18 12:57:00,38.1,37.9,29.64,North,0,7.4,-999.0,99,-99.99,,,0.02,Acu-Link.com,2014-12-18 17:57:00,
2014-12-18 13:12:00,38.3,38.0,29.63,NNE,22,7.4,-999.0,99,-99.99,,,0.02,Acu-Link.com,2014-12-18 18:12:00,
2014-12-18 13:27:00,38.3,38.0,29.63,NNW,337,4.7,-999.0,99,-99.99,,,0.02,Acu-Link.com,2014-12-18 18:27:00,
2014-12-18 13:42:00,38.7,38.4,29.63,NNE,22,8.3,-999.0,99,-99.99,,,0.02,Acu-Link.com,2014-12-18 18:42:00,
2014-12-18 13:58:00,38.1,37.9,29.64,NE,45,4.7,-999.0,99,-99.99,,,0.02,Acu-Link.com,2014-12-18 18:58:00,
2014-12-18 14:13:00,37.8,37.5,29.64,NNW,337,6.7,-999.0,99,-99.99,,,0.02,Acu-Link.com,2014-12-18 19:13:00,
2014-12-18 14:28:00,37.4,37.1,29.65,NE,45,6.3,-999.0,99,-99.99,,,0.02,Acu-Link.com,2014-12-18 19:28:00,
2014-12-18 14:43:00,37.2,37.0,29.65,NNE,22,4.3,-999.0,99,-99.99,,,0.02,Acu-Link.com,2014-12-18 19:43:00,
2014-12-18 14:58:00,37.0,36.8,29.66,ESE,112,5.8,-999.0,99,-99.99,,,0.02,Acu-Link.com,2014-12-18 19:58:00,
2014-12-18 15:14:00,37.0,36.8,29.66,North,0,3.8,-999.0,99,-99.99,,,0.02,Acu-Link.com,2014-12-18 20:14:00,
2014-12-18 15:29:00,37.0,36.8,29.66,NW,315,2.7,-999.0,99,-99.99,,,0.02,Acu-Link.com,2014-12-18 20:29:00,